Time;durP1;ratioP1;P1;durP2;ratioP2;P2;SDS_P1;SDS_P2;PMS_P1;PMS_P2;Temp;Humidity;BMP_temperature;BMP_pressure;BME280_temperature;BME280_humidity;BME280_pressure;Samples;Min_cycle;Max_cycle;Signal;HPM_P1;HPM_P2
2023/01/28 00:00:08;;;;;;;335.30;95.32;;;;;;;4.55;86.66;98817.63;348500;28;3201;-73
2023/01/28 00:00:18;;;;;;;336.83;95.47;;;;;;;4.55;86.67;98815.03;346293;28;864;-73
2023/01/28 00:00:29;;;;;;;337.30;96.45;;;;;;;4.53;87.06;98811.63;348507;28;978;-73
2023/01/28 00:00:39;;;;;;;336.20;94.13;;;;;;;4.52;86.85;98815.13;345549;28;2812;-73
2023/01/28 00:00:50;;;;;;;333.27;92.05;;;;;;;4.52;86.59;98815.13;347249;28;1191;-73
2023/01/28 00:01:05;;;;;;;331.63;90.40;;;;;;;4.53;86.72;98814.22;347353;28;4825;-73
2023/01/28 00:01:15;;;;;;;332.55;91.30;;;;;;;4.53;86.84;98811.63;351482;28;1766;-73
2023/01/28 00:01:26;;;;;;;334.92;92.57;;;;;;;4.50;86.58;98811.72;348573;28;2379;-73
2023/01/28 00:01:36;;;;;;;335.83;93.50;;;;;;;4.52;86.87;98818.56;346801;28;4852;-73
2023/01/28 00:01:46;;;;;;;333.60;91.20;;;;;;;4.52;86.96;98825.50;347295;28;1328;-73
2023/01/28 00:01:57;;;;;;;333.83;92.57;;;;;;;4.49;86.58;98812.63;346205;28;3515;-73
2023/01/28 00:02:07;;;;;;;331.48;91.28;;;;;;;4.49;86.48;98810.03;345150;28;4286;-74
2023/01/28 00:02:18;;;;;;;330.83;90.97;;;;;;;4.48;86.91;98816.09;345924;28;2668;-73
2023/01/28 00:02:29;;;;;;;329.63;89.47;;;;;;;4.47;86.75;98817.84;344403;28;2588;-74
2023/01/28 00:02:40;;;;;;;330.88;88.22;;;;;;;4.45;86.81;98816.19;344456;28;2837;-73
2023/01/28 00:02:50;;;;;;;331.63;88.53;;;;;;;4.46;87.13;98810.13;341150;28;1192;-72
2023/01/28 00:03:01;;;;;;;331.43;85.67;;;;;;;4.45;86.86;98816.19;341998;28;3495;-72
2023/01/28 00:03:11;;;;;;;330.23;86.25;;;;;;;4.43;87.19;98816.25;338065;28;4018;-72
2023/01/28 00:03:21;;;;;;;332.47;89.27;;;;;;;4.43;87.19;98818.81;343047;28;4910;-73
2023/01/28 00:03:32;;;;;;;334.52;92.45;;;;;;;4.43;86.97;98820.56;342073;28;2725;-73
2023/01/28 00:03:42;;;;;;;335.50;91.83;;;;;;;4.45;87.13;98822.22;341840;28;2702;-73
2023/01/28 00:03:53;;;;;;;334.27;89.57;;;;;;;4.45;87.03;98817.03;342627;28;1374;-73
2023/01/28 00:04:03;;;;;;;332.47;87.90;;;;;;;4.44;86.96;98817.09;341144;28;3698;-73
2023/01/28 00:04:14;;;;;;;332.63;90.35;;;;;;;4.44;86.95;98817.09;340245;28;3106;-73
2023/01/28 00:04:24;;;;;;;331.87;90.40;;;;;;;4.42;87.01;98817.13;342410;28;1485;-73
2023/01/28 00:04:35;;;;;;;333.05;91.53;;;;;;;4.43;87.25;98817.97;343497;28;1272;-74
2023/01/28 00:04:45;;;;;;;333.53;92.90;;;;;;;4.41;86.93;98818.03;341559;28;3572;-74
2023/01/28 00:04:55;;;;;;;333.17;92.80;;;;;;;4.38;86.90;98812.94;340367;28;1366;-74
2023/01/28 00:05:06;;;;;;;332.97;92.10;;;;;;;4.39;87.46;98818.97;336392;29;4446;-73
2023/01/28 00:05:16;;;;;;;334.20;91.57;;;;;;;4.40;86.87;98823.25;338191;29;3061;-73
2023/01/28 00:05:28;;;;;;;336.85;93.10;;;;;;;4.40;87.25;98820.66;338220;29;835;-73
2023/01/28 00:05:39;;;;;;;334.08;91.42;;;;;;;4.39;87.34;98819.81;336771;29;1876;-73
2023/01/28 00:05:51;;;;;;;333.03;91.50;;;;;;;4.40;87.44;98818.06;334186;29;1196;-73
2023/01/28 00:06:03;;;;;;;330.30;89.13;;;;;;;4.41;87.42;98824.94;337694;29;3928;-73
2023/01/28 00:06:13;;;;;;;333.38;92.70;;;;;;;4.43;87.18;98817.97;337544;29;2786;-73
2023/01/28 00:06:24;;;;;;;339.15;92.28;;;;;;;4.45;87.35;98823.97;336751;29;1876;-73
2023/01/28 00:06:34;;;;;;;339.10;92.40;;;;;;;4.46;86.96;98816.16;335712;29;1732;-74
2023/01/28 00:06:45;;;;;;;333.63;90.53;;;;;;;4.47;87.04;98822.19;337353;29;2039;-74
2023/01/28 00:06:55;;;;;;;330.95;90.10;;;;;;;4.48;87.07;98818.69;337108;29;2311;-74
2023/01/28 00:07:06;;;;;;;331.40;91.87;;;;;;;4.45;86.83;98814.44;334651;29;4672;-74
2023/01/28 00:07:17;;;;;;;332.17;91.63;;;;;;;4.45;87.24;98818.78;340753;29;1610;-74
2023/01/28 00:07:28;;;;;;;332.52;91.82;;;;;;;4.46;86.95;98817.88;339641;29;899;-74
2023/01/28 00:07:39;;;;;;;330.73;87.95;;;;;;;4.47;87.03;98817.00;338700;28;3538;-72
2023/01/28 00:07:49;;;;;;;330.65;88.55;;;;;;;4.47;86.88;98829.94;337557;29;3555;-73
2023/01/28 00:08:00;;;;;;;330.87;88.93;;;;;;;4.47;86.77;98820.44;340061;29;1743;-73
2023/01/28 00:08:12;;;;;;;332.17;91.80;;;;;;;4.49;87.19;98826.44;339856;28;1981;-73
2023/01/28 00:08:22;;;;;;;332.45;90.88;;;;;;;4.50;87.18;98822.09;336728;29;2950;-73
2023/01/28 00:08:33;;;;;;;333.15;91.03;;;;;;;4.49;87.00;98817.81;334309;29;973;-73
2023/01/28 00:08:43;;;;;;;333.60;91.70;;;;;;;4.49;87.20;98821.25;332546;29;2362;-73
2023/01/28 00:08:54;;;;;;;333.77;93.38;;;;;;;4.49;87.05;98820.41;329934;29;2698;-75
2023/01/28 00:09:05;;;;;;;333.60;92.47;;;;;;;4.49;87.14;98820.41;331294;29;4672;-73
2023/01/28 00:09:15;;;;;;;333.93;92.20;;;;;;;4.48;87.08;98821.28;335365;29;2724;-74
2023/01/28 00:09:25;;;;;;;332.85;89.93;;;;;;;4.48;87.13;98823.88;335857;29;1825;-73
2023/01/28 00:09:38;;;;;;;332.13;89.03;;;;;;;4.46;87.54;98825.66;333661;29;3885;-73
2023/01/28 00:09:48;;;;;;;331.75;87.68;;;;;;;4.43;87.34;98825.75;328069;30;973;-73
2023/01/28 00:09:58;;;;;;;333.10;90.20;;;;;;;4.42;87.34;98826.66;327388;30;2117;-74
2023/01/28 00:10:09;;;;;;;333.20;92.90;;;;;;;4.42;87.34;98826.66;329707;29;3575;-73
2023/01/28 00:10:20;;;;;;;332.98;94.18;;;;;;;4.42;87.58;98830.09;324602;30;3920;-74
2023/01/28 00:10:30;;;;;;;332.55;93.55;;;;;;;4.42;87.23;98824.06;328222;30;2836;-74
2023/01/28 00:10:41;;;;;;;331.13;90.40;;;;;;;4.41;87.30;98819.75;325831;30;3165;-74
2023/01/28 00:10:52;;;;;;;333.52;92.53;;;;;;;4.43;87.53;98828.34;321175;30;3259;-73
2023/01/28 00:11:04;;;;;;;333.00;91.23;;;;;;;4.45;87.42;98823.97;321243;30;2731;-73
2023/01/28 00:11:15;;;;;;;332.42;90.75;;;;;;;4.44;87.20;98827.44;324710;30;3545;-73
2023/01/28 00:11:25;;;;;;;331.37;88.37;;;;;;;4.43;86.98;98821.41;323453;30;3311;-73
2023/01/28 00:11:35;;;;;;;331.65;89.65;;;;;;;4.42;87.27;98817.13;316637;30;3208;-73
2023/01/28 00:11:46;;;;;;;331.70;89.60;;;;;;;4.42;87.46;98824.06;318161;30;2462;-73
2023/01/28 00:11:57;;;;;;;333.43;91.67;;;;;;;4.42;87.44;98819.72;321149;30;2220;-73
2023/01/28 00:12:08;;;;;;;333.02;91.03;;;;;;;4.41;87.07;98822.34;319258;30;4079;-73
2023/01/28 00:12:18;;;;;;;333.10;91.80;;;;;;;4.40;87.22;98820.66;318253;31;2715;-73
2023/01/28 00:12:29;;;;;;;332.30;90.37;;;;;;;4.39;87.45;98824.97;319239;30;4535;-73
2023/01/28 00:12:39;;;;;;;331.48;90.10;;;;;;;4.38;87.35;98828.47;315310;31;3918;-73
2023/01/28 00:12:49;;;;;;;332.50;90.20;;;;;;;4.38;87.16;98817.25;310797;31;3969;-73
2023/01/28 00:13:00;;;;;;;332.33;90.00;;;;;;;4.34;87.24;98817.34;311913;31;4346;-73
2023/01/28 00:13:12;;;;;;;332.50;90.57;;;;;;;4.34;87.33;98822.53;313020;31;4434;-74
2023/01/28 00:13:22;;;;;;;331.63;89.57;;;;;;;4.35;87.11;98824.22;309860;31;4434;-73
2023/01/28 00:13:33;;;;;;;333.00;91.07;;;;;;;4.34;87.15;98822.53;307434;32;4638;-73
2023/01/28 00:13:43;;;;;;;332.90;89.43;;;;;;;4.34;87.26;98816.50;306845;32;4820;-73
2023/01/28 00:13:54;;;;;;;333.83;91.20;;;;;;;4.33;87.62;98823.41;305687;32;3361;-74
2023/01/28 00:14:04;;;;;;;333.02;90.75;;;;;;;4.35;87.38;98824.22;302913;32;3659;-73
2023/01/28 00:14:15;;;;;;;332.03;89.57;;;;;;;4.35;87.57;98826.81;300970;32;4504;-73
2023/01/28 00:14:25;;;;;;;331.88;90.38;;;;;;;4.35;87.33;98824.22;303026;32;4115;-73
2023/01/28 00:14:36;;;;;;;331.40;90.17;;;;;;;4.35;87.32;98819.03;303342;32;808;-73
2023/01/28 00:14:46;;;;;;;332.45;92.05;;;;;;;4.38;87.76;98818.09;300858;32;5427;-73
2023/01/28 00:14:57;;;;;;;331.03;88.27;;;;;;;4.39;87.28;98824.13;299406;32;5805;-72
2023/01/28 00:15:08;;;;;;;330.38;87.68;;;;;;;4.41;87.74;98824.94;299793;32;6783;-72
2023/01/28 00:15:18;;;;;;;328.92;85.13;;;;;;;4.40;87.32;98820.66;301333;32;911;-73
2023/01/28 00:15:29;;;;;;;330.25;88.35;;;;;;;4.38;87.24;98814.66;293358;33;5884;-73
2023/01/28 00:15:39;;;;;;;329.77;87.50;;;;;;;4.37;87.41;98824.19;296986;32;6418;-73
2023/01/28 00:16:01;;;;;;;330.58;89.95;;;;;;;4.34;87.28;98832.88;298135;33;957;-73
2023/01/28 00:16:11;;;;;;;332.70;91.13;;;;;;;4.33;87.19;98825.19;294395;33;4433;-73
2023/01/28 00:16:22;;;;;;;332.63;89.18;;;;;;;4.34;87.21;98822.53;293799;33;2937;-74
2023/01/28 00:16:32;;;;;;;334.03;89.70;;;;;;;4.34;87.35;98832.88;291088;33;1350;-73
2023/01/28 00:16:42;;;;;;;333.45;90.25;;;;;;;4.32;87.02;98829.53;290255;33;5983;-73
2023/01/28 00:16:53;;;;;;;333.00;90.27;;;;;;;4.31;87.22;98833.00;286604;33;7303;-73
2023/01/28 00:17:04;;;;;;;330.88;88.95;;;;;;;4.31;87.56;98827.81;290287;34;1541;-73
2023/01/28 00:17:15;;;;;;;330.83;88.95;;;;;;;4.35;87.50;98833.72;290991;33;8502;-72
2023/01/28 00:17:25;;;;;;;332.00;90.63;;;;;;;4.36;87.83;98825.06;288370;34;8082;-73
2023/01/28 00:17:36;;;;;;;333.40;91.17;;;;;;;4.37;87.51;98825.91;285184;34;3721;-73
2023/01/28 00:17:46;;;;;;;334.88;92.80;;;;;;;4.35;87.23;98826.81;288550;34;7994;-74
2023/01/28 00:17:56;;;;;;;333.47;89.33;;;;;;;4.40;87.35;98831.00;289836;33;8680;-74
2023/01/28 00:18:07;;;;;;;331.95;87.20;;;;;;;4.38;87.37;98819.84;286193;34;4806;-73
2023/01/28 00:18:17;;;;;;;329.57;84.90;;;;;;;4.33;87.23;98820.81;281337;35;3148;-73
2023/01/28 00:18:28;;;;;;;330.15;85.55;;;;;;;4.32;87.22;98832.13;281234;35;6705;-73
2023/01/28 00:18:38;;;;;;;330.70;87.93;;;;;;;4.32;87.30;98819.16;279231;34;6983;-72
2023/01/28 00:18:49;;;;;;;332.13;89.80;;;;;;;4.32;87.40;98819.16;278259;35;4203;-73
2023/01/28 00:18:59;;;;;;;333.53;91.43;;;;;;;4.32;87.24;98821.75;279259;35;8203;-73
2023/01/28 00:19:10;;;;;;;333.38;89.93;;;;;;;4.32;87.24;98828.69;277626;35;10281;-73
2023/01/28 00:19:20;;;;;;;333.30;89.37;;;;;;;4.31;87.39;98825.22;280270;35;3556;-73
2023/01/28 00:21:04;;;;;;;324.88;84.46;;;;;;;4.32;87.85;98833.84;2489490;27;20469;-74
2023/01/28 00:21:15;;;;;;;330.80;88.82;;;;;;;4.32;87.49;98829.53;350296;28;3647;-73
2023/01/28 00:21:25;;;;;;;332.80;89.63;;;;;;;4.31;87.27;98822.66;346801;28;4630;-73
2023/01/28 00:21:36;;;;;;;333.10;89.80;;;;;;;4.33;87.08;98836.38;348938;28;1425;-73
2023/01/28 00:21:46;;;;;;;334.30;89.22;;;;;;;4.33;87.29;98827.78;347429;28;1371;-73
2023/01/28 00:21:57;;;;;;;333.10;90.67;;;;;;;4.33;87.29;98831.19;344874;28;4308;-73
2023/01/28 00:22:07;;;;;;;333.13;90.63;;;;;;;4.33;87.30;98836.38;345644;28;4584;-73
2023/01/28 00:22:18;;;;;;;332.90;91.00;;;;;;;4.33;87.14;98826.00;346280;28;872;-73
2023/01/28 00:22:28;;;;;;;333.02;90.88;;;;;;;4.33;87.55;98826.00;343500;28;868;-73
2023/01/28 00:22:38;;;;;;;333.42;91.35;;;;;;;4.33;87.12;98832.97;343428;28;893;-73
2023/01/28 00:22:49;;;;;;;332.77;89.53;;;;;;;4.33;87.60;98827.78;342333;28;1196;-73
2023/01/28 00:23:02;;;;;;;332.23;88.22;;;;;;;4.30;87.32;98831.31;343270;28;1205;-73
2023/01/28 00:23:12;;;;;;;330.45;85.05;;;;;;;4.30;87.24;98836.47;347546;28;799;-74
2023/01/28 00:23:23;;;;;;;330.77;83.77;;;;;;;4.30;87.18;98826.13;344559;28;1203;-74
2023/01/28 00:23:35;;;;;;;330.75;84.63;;;;;;;4.29;87.31;98829.59;346087;28;930;-73
2023/01/28 00:23:51;;;;;;;331.40;87.50;;;;;;;4.28;87.17;98830.50;347357;28;900;-74
2023/01/28 00:24:01;;;;;;;332.30;89.20;;;;;;;4.29;87.36;98833.94;347340;28;911;-73
2023/01/28 00:24:11;;;;;;;332.00;89.00;;;;;;;4.29;87.22;98834.78;344560;28;1256;-73
2023/01/28 00:24:22;;;;;;;332.30;89.70;;;;;;;4.31;87.17;98838.19;344548;28;1200;-73
2023/01/28 00:24:32;;;;;;;332.03;90.20;;;;;;;4.31;87.09;98829.56;346000;28;1208;-73
2023/01/28 00:24:43;;;;;;;331.42;89.75;;;;;;;4.30;87.15;98831.31;348435;28;1228;-73
2023/01/28 00:24:53;;;;;;;330.60;87.78;;;;;;;4.30;87.25;98826.13;349948;28;1322;-73
2023/01/28 00:25:04;;;;;;;331.67;86.13;;;;;;;4.33;87.29;98830.38;347236;28;962;-73
2023/01/28 00:25:15;;;;;;;333.00;88.80;;;;;;;4.32;87.37;98829.53;347356;28;1393;-73
2023/01/28 00:25:25;;;;;;;333.00;89.60;;;;;;;4.30;87.12;98831.31;347450;28;1057;-73
2023/01/28 00:25:35;;;;;;;331.90;91.05;;;;;;;4.30;86.96;98836.47;346050;28;1033;-73
2023/01/28 00:25:46;;;;;;;330.30;87.63;;;;;;;4.32;87.55;98834.69;345977;28;1173;-73
2023/01/28 00:26:03;;;;;;;331.08;87.45;;;;;;;4.33;87.51;98836.38;346241;28;784;-73
2023/01/28 00:26:14;;;;;;;332.13;87.50;;;;;;;4.34;87.32;98838.06;345941;28;1352;-73
2023/01/28 00:26:24;;;;;;;331.55;89.15;;;;;;;4.32;87.20;98832.13;345850;28;1238;-73
2023/01/28 00:26:35;;;;;;;331.13;89.77;;;;;;;4.31;87.48;98835.59;344560;28;891;-73
2023/01/28 00:26:45;;;;;;;332.27;90.22;;;;;;;4.30;87.52;98836.47;341827;28;1304;-73
2023/01/28 00:26:56;;;;;;;332.87;89.83;;;;;;;4.26;87.55;98829.69;342485;28;1188;-73
2023/01/28 00:27:06;;;;;;;332.35;88.43;;;;;;;4.25;87.76;98838.34;344561;28;1352;-73
2023/01/28 00:27:17;;;;;;;332.53;88.63;;;;;;;4.24;87.66;98833.22;344594;28;1361;-73
2023/01/28 00:27:27;;;;;;;333.35;88.97;;;;;;;4.23;87.75;98834.09;344359;28;1266;-73
2023/01/28 00:27:37;;;;;;;333.90;89.97;;;;;;;4.24;87.47;98838.41;341843;28;1307;-73
2023/01/28 00:27:48;;;;;;;334.73;90.47;;;;;;;4.24;87.22;98831.47;341956;28;939;-73
2023/01/28 00:27:59;;;;;;;333.00;87.70;;;;;;;4.22;87.58;98833.25;342055;28;855;-72
2023/01/28 00:28:09;;;;;;;331.40;87.53;;;;;;;4.24;87.49;98836.66;345593;28;3377;-73
2023/01/28 00:28:21;;;;;;;330.40;87.78;;;;;;;4.25;87.73;98838.34;344811;28;3791;-72
2023/01/28 00:28:34;;;;;;;330.96;89.04;;;;;;;4.26;87.61;98829.69;344789;28;1983;-73
2023/01/28 00:28:44;;;;;;;334.95;90.40;;;;;;;4.27;87.82;98835.72;343227;28;2724;-73
2023/01/28 00:28:55;;;;;;;334.93;89.47;;;;;;;4.29;87.71;98834.78;343790;28;5240;-74
2023/01/28 00:29:05;;;;;;;332.02;89.43;;;;;;;4.29;88.01;98839.97;341318;28;1341;-73
2023/01/28 00:29:16;;;;;;;330.57;87.23;;;;;;;4.30;87.70;98833.91;337110;28;4100;-73
2023/01/28 00:29:26;;;;;;;330.23;86.32;;;;;;;4.32;87.80;98828.69;339616;29;4643;-73
2023/01/28 00:29:37;;;;;;;333.83;88.53;;;;;;;4.32;87.60;98839.88;339111;29;2074;-73
2023/01/28 00:29:47;;;;;;;333.30;89.40;;;;;;;4.31;87.54;98840.78;334003;29;4890;-73
2023/01/28 00:29:58;;;;;;;332.83;89.95;;;;;;;4.32;87.58;98832.13;336561;29;1360;-73
2023/01/28 00:30:09;;;;;;;330.23;87.93;;;;;;;4.30;87.24;98836.47;337375;29;3265;-73
2023/01/28 00:30:20;;;;;;;332.50;89.20;;;;;;;4.32;87.59;98839.03;333714;29;4456;-73
2023/01/28 00:30:30;;;;;;;333.35;88.57;;;;;;;4.31;87.47;98832.16;338175;29;1314;-74
2023/01/28 00:30:41;;;;;;;334.23;88.93;;;;;;;4.32;87.84;98837.28;337067;29;1935;-73
2023/01/28 00:30:51;;;;;;;335.13;89.72;;;;;;;4.31;87.73;98843.38;336680;29;1485;-74
2023/01/28 00:31:15;;;;;;;333.67;89.90;;;;;;;4.33;87.68;98846.72;337035;29;1655;-73
2023/01/28 00:31:26;;;;;;;332.60;89.63;;;;;;;4.35;87.76;98838.91;336568;29;2737;-73
2023/01/28 00:31:36;;;;;;;336.48;93.63;;;;;;;4.36;87.72;98840.63;335162;29;2545;-74
2023/01/28 00:31:46;;;;;;;335.47;92.70;;;;;;;4.33;87.62;98831.19;332916;29;2923;-74
2023/01/28 00:31:57;;;;;;;334.17;90.55;;;;;;;4.33;87.43;98828.59;332281;29;2089;-74
2023/01/28 00:32:07;;;;;;;331.07;87.53;;;;;;;4.34;87.51;98839.81;328615;29;3568;-73
2023/01/28 00:32:18;;;;;;;333.17;89.68;;;;;;;4.33;87.52;98838.97;328579;29;4560;-72
2023/01/28 00:32:29;;;;;;;333.73;91.33;;;;;;;4.33;87.36;98836.38;331359;29;2794;-72
2023/01/28 00:32:39;;;;;;;336.65;93.78;;;;;;;4.33;87.53;98838.13;330733;29;2731;-72
2023/01/28 00:32:50;;;;;;;335.73;93.90;;;;;;;4.33;87.54;98835.56;327934;29;2903;-73
2023/01/28 00:33:00;;;;;;;335.53;93.10;;;;;;;4.31;87.50;98842.50;330598;29;891;-72
2023/01/28 00:33:11;;;;;;;331.33;88.63;;;;;;;4.32;87.44;98845.06;327331;29;4252;-72
2023/01/28 00:33:21;;;;;;;332.77;90.63;;;;;;;4.31;87.25;98838.19;326195;30;3040;-72
2023/01/28 00:33:32;;;;;;;332.70;90.97;;;;;;;4.33;87.44;98841.53;328278;30;1020;-72
2023/01/28 00:33:43;;;;;;;333.88;91.63;;;;;;;4.31;87.95;98838.19;333210;29;2272;-73
2023/01/28 00:33:54;;;;;;;332.73;88.93;;;;;;;4.32;88.04;98842.47;330097;29;2748;-72
2023/01/28 00:34:05;;;;;;;332.75;89.63;;;;;;;4.33;87.70;98844.13;326508;30;2721;-72
2023/01/28 00:34:15;;;;;;;331.52;87.15;;;;;;;4.34;87.67;98845.84;326779;30;902;-73
2023/01/28 00:34:25;;;;;;;331.67;88.10;;;;;;;4.37;87.76;98841.47;329159;29;2030;-73
2023/01/28 00:34:36;;;;;;;332.98;88.45;;;;;;;4.38;87.92;98848.34;328799;29;1206;-73
2023/01/28 00:34:48;;;;;;;333.13;91.87;;;;;;;4.37;87.97;98841.47;327879;30;1189;-73
2023/01/28 00:34:59;;;;;;;331.83;92.43;;;;;;;4.36;87.89;98843.19;327831;30;1262;-72
2023/01/28 00:35:10;;;;;;;332.50;93.53;;;;;;;4.35;87.64;98844.94;330875;29;2732;-72
2023/01/28 00:35:20;;;;;;;332.15;92.63;;;;;;;4.35;87.85;98844.94;332064;29;2754;-72
2023/01/28 00:35:31;;;;;;;332.67;92.27;;;;;;;4.34;87.76;98837.22;329189;30;1381;-72
2023/01/28 00:35:41;;;;;;;332.30;91.17;;;;;;;4.32;87.85;98845.06;325920;30;2815;-72
2023/01/28 00:35:59;;;;;;;332.70;90.27;;;;;;;4.31;87.74;98843.38;324338;30;3003;-72
2023/01/28 00:36:10;;;;;;;330.40;87.85;;;;;;;4.32;87.67;98845.06;324035;30;3393;-72
2023/01/28 00:36:21;;;;;;;331.77;89.18;;;;;;;4.32;88.13;98847.66;321646;30;3676;-72
2023/01/28 00:36:32;;;;;;;331.56;88.90;;;;;;;4.34;87.86;98843.25;318422;31;1327;-72
2023/01/28 00:36:44;;;;;;;332.50;89.03;;;;;;;4.37;88.22;98851.81;316901;30;2593;-72
2023/01/28 00:36:56;;;;;;;331.02;88.25;;;;;;;4.37;87.74;98844.06;319783;30;2230;-72
2023/01/28 00:37:07;;;;;;;331.35;88.47;;;;;;;4.39;88.53;98848.31;319023;30;2726;-72
2023/01/28 00:37:17;;;;;;;332.30;89.57;;;;;;;4.42;87.57;98849.94;316968;31;1910;-72
2023/01/28 00:37:28;;;;;;;333.50;92.03;;;;;;;4.41;87.51;98843.06;319564;30;4020;-74
2023/01/28 00:37:40;;;;;;;332.40;91.77;;;;;;;4.41;87.85;98843.06;316584;30;4538;-72
2023/01/28 00:37:51;;;;;;;332.80;91.53;;;;;;;4.43;88.08;98847.31;314777;30;4153;-73
2023/01/28 00:38:03;;;;;;;333.90;91.47;;;;;;;4.44;87.70;98840.41;316252;31;1243;-73
2023/01/28 00:38:13;;;;;;;334.63;93.05;;;;;;;4.44;87.93;98850.75;313150;31;4175;-73
2023/01/28 00:38:23;;;;;;;332.98;91.10;;;;;;;4.44;87.74;98853.34;315999;30;4703;-73
2023/01/28 00:38:34;;;;;;;331.97;90.67;;;;;;;4.41;87.72;98843.94;316689;31;5263;-72
2023/01/28 00:38:51;;;;;;;332.67;89.47;;;;;;;4.34;87.61;98848.44;314688;31;1888;-74
2023/01/28 00:39:02;;;;;;;331.33;89.50;;;;;;;4.33;87.89;98846.72;312133;31;1004;-72
2023/01/28 00:39:13;;;;;;;330.53;89.00;;;;;;;4.34;87.74;98845.84;311251;31;2753;-73
2023/01/28 00:39:24;;;;;;;332.70;92.30;;;;;;;4.35;87.51;98851.88;312130;31;3828;-73
2023/01/28 00:39:35;;;;;;;331.88;90.50;;;;;;;4.35;87.54;98849.28;310343;31;5759;-72
2023/01/28 00:39:48;;;;;;;333.20;92.83;;;;;;;4.37;87.58;98846.66;309075;31;1530;-72
2023/01/28 00:39:58;;;;;;;334.55;92.93;;;;;;;4.35;87.92;98855.31;300623;32;7038;-72
2023/01/28 00:40:09;;;;;;;334.55;92.93;;;;;;;4.38;87.61;98854.38;304423;31;5863;-72
2023/01/28 00:40:20;;;;;;;332.02;90.85;;;;;;;4.38;87.58;98853.53;306748;32;5510;-72
2023/01/28 00:40:30;;;;;;;331.15;88.85;;;;;;;4.36;87.46;98848.38;306329;32;848;-72
2023/01/28 00:40:41;;;;;;;332.73;90.60;;;;;;;4.35;87.60;98844.94;301302;32;6317;-72
2023/01/28 00:40:51;;;;;;;334.07;91.13;;;;;;;4.38;87.95;98843.16;300092;32;6790;-72
2023/01/28 00:41:09;;;;;;;333.57;91.73;;;;;;;4.38;88.00;98859.56;303169;32;1403;-72
2023/01/28 00:41:23;;;;;;;332.90;90.63;;;;;;;4.40;87.73;98851.75;299292;32;4749;-72
2023/01/28 00:41:33;;;;;;;333.02;90.75;;;;;;;4.38;87.66;98848.34;304087;32;2874;-72
2023/01/28 00:41:44;;;;;;;332.05;89.43;;;;;;;4.33;87.28;98857.09;300233;32;1230;-73
2023/01/28 00:41:54;;;;;;;330.43;88.00;;;;;;;4.32;87.67;98850.25;296145;32;8577;-74
2023/01/28 00:42:05;;;;;;;329.85;87.75;;;;;;;4.32;87.72;98850.25;294571;32;9132;-72
2023/01/28 00:42:15;;;;;;;330.80;88.43;;;;;;;4.30;87.54;98857.19;296937;33;3909;-72
2023/01/28 00:42:26;;;;;;;332.15;90.30;;;;;;;4.31;87.78;98852.88;288407;33;8171;-72
2023/01/28 00:42:36;;;;;;;333.07;91.20;;;;;;;4.32;87.76;98862.34;285309;34;7537;-73
2023/01/28 00:42:46;;;;;;;335.75;92.75;;;;;;;4.33;87.68;98859.69;286206;34;2255;-73
2023/01/28 00:44:26;;;;;;;325.22;87.24;;;;;;;4.28;87.71;98859.00;2492294;27;25389;-73
2023/01/28 00:44:36;;;;;;;333.25;88.85;;;;;;;4.28;87.84;98860.72;355730;27;3160;-73
2023/01/28 00:44:47;;;;;;;335.17;92.63;;;;;;;4.28;87.80;98859.00;352986;28;2076;-73
2023/01/28 00:44:57;;;;;;;334.30;92.13;;;;;;;4.28;88.09;98858.13;351569;28;2893;-72
2023/01/28 00:45:08;;;;;;;330.02;90.10;;;;;;;4.25;88.09;98858.22;351692;28;1211;-72
2023/01/28 00:45:18;;;;;;;331.03;90.60;;;;;;;4.24;87.81;98857.38;349205;28;4486;-72
2023/01/28 00:45:28;;;;;;;330.75;89.32;;;;;;;4.26;87.82;98860.78;349975;28;3033;-73
2023/01/28 00:45:39;;;;;;;332.00;89.60;;;;;;;4.28;88.01;98863.31;348633;28;1840;-73
2023/01/28 00:45:49;;;;;;;330.75;87.45;;;;;;;4.29;88.00;98860.69;347371;28;2661;-73
2023/01/28 00:45:59;;;;;;;331.50;88.47;;;;;;;4.31;87.98;98864.09;348778;28;1331;-73
2023/01/28 00:46:11;;;;;;;331.15;86.00;;;;;;;4.32;87.75;98865.78;349422;28;3657;-73
2023/01/28 00:46:21;;;;;;;331.73;87.18;;;;;;;4.31;87.79;98864.09;348512;28;4559;-73
2023/01/28 00:46:32;;;;;;;331.80;87.18;;;;;;;4.32;87.97;98860.59;350200;28;2506;-74
2023/01/28 00:46:42;;;;;;;332.70;89.37;;;;;;;4.31;87.78;98869.25;351338;28;2443;-74
2023/01/28 00:46:53;;;;;;;331.58;88.63;;;;;;;4.31;88.18;98858.91;349483;28;4989;-73
2023/01/28 00:47:03;;;;;;;332.10;86.17;;;;;;;4.31;88.02;98866.66;347481;28;1258;-73
2023/01/28 00:47:15;;;;;;;332.30;87.60;;;;;;;4.28;87.81;98864.16;345497;28;3539;-73
2023/01/28 00:47:25;;;;;;;333.40;88.47;;;;;;;4.28;87.83;98864.16;347249;28;2829;-72
2023/01/28 00:47:36;;;;;;;335.35;92.38;;;;;;;4.28;87.99;98865.91;346253;28;1337;-72
2023/01/28 00:47:47;;;;;;;335.45;89.82;;;;;;;4.28;87.83;98864.16;345896;28;2648;-75
2023/01/28 00:47:57;;;;;;;334.75;88.75;;;;;;;4.26;87.77;98863.34;344831;28;840;-73
2023/01/28 00:48:08;;;;;;;330.53;87.20;;;;;;;4.24;87.88;98867.72;345516;28;3695;-72
2023/01/28 00:48:18;;;;;;;330.92;89.25;;;;;;;4.25;88.11;98866.84;344013;28;3140;-73
2023/01/28 00:48:29;;;;;;;332.20;90.97;;;;;;;4.24;88.16;98867.72;345309;28;4369;-74
2023/01/28 00:48:40;;;;;;;334.73;91.30;;;;;;;4.25;87.64;98864.25;344451;28;2639;-73
2023/01/28 00:48:51;;;;;;;333.58;89.80;;;;;;;4.27;87.95;98866.78;346949;28;4704;-73
2023/01/28 00:49:01;;;;;;;330.45;87.15;;;;;;;4.26;87.86;98872.88;347748;28;1032;-74
2023/01/28 00:49:12;;;;;;;329.65;86.90;;;;;;;4.26;88.17;98863.34;342849;28;4768;-72
2023/01/28 00:49:22;;;;;;;331.60;88.33;;;;;;;4.27;87.90;98866.78;343820;28;2888;-72
2023/01/28 00:49:32;;;;;;;332.97;89.47;;;;;;;4.27;87.93;98867.66;344882;28;821;-72
2023/01/28 00:49:43;;;;;;;331.38;86.97;;;;;;;4.27;87.98;98869.38;343400;28;2889;-74
2023/01/28 00:49:54;;;;;;;330.43;86.20;;;;;;;4.28;88.08;98868.50;342122;28;1457;-73
2023/01/28 00:50:04;;;;;;;329.58;85.78;;;;;;;4.27;87.75;98864.22;342705;28;3680;-73
2023/01/28 00:50:15;;;;;;;331.13;88.18;;;;;;;4.26;87.86;98871.13;339931;28;4709;-74
2023/01/28 00:50:26;;;;;;;332.17;88.00;;;;;;;4.28;87.99;98874.53;345856;28;1951;-73
2023/01/28 00:50:36;;;;;;;337.03;90.57;;;;;;;4.29;88.42;98876.22;346181;28;1913;-73
2023/01/28 00:50:46;;;;;;;336.80;90.18;;;;;;;4.27;88.28;98872.81;342822;28;5197;-73
2023/01/28 00:50:57;;;;;;;336.63;92.33;;;;;;;4.28;88.01;98874.53;339423;29;1254;-73
2023/01/28 00:51:07;;;;;;;332.15;90.13;;;;;;;4.28;88.17;98873.69;341650;28;3625;-73
2023/01/28 00:51:19;;;;;;;332.02;90.60;;;;;;;4.28;88.01;98874.53;343076;28;4518;-72
2023/01/28 00:51:29;;;;;;;331.58;90.03;;;;;;;4.28;88.10;98874.53;343015;28;2573;-73
2023/01/28 00:51:40;;;;;;;332.55;90.40;;;;;;;4.27;88.13;98871.97;341485;28;2066;-73
2023/01/28 00:51:50;;;;;;;332.77;89.27;;;;;;;4.27;88.09;98869.38;339427;29;1181;-73
2023/01/28 00:52:01;;;;;;;332.15;87.38;;;;;;;4.27;87.71;98877.16;338937;28;1396;-73
2023/01/28 00:52:11;;;;;;;331.23;87.10;;;;;;;4.27;88.01;98872.81;335524;29;4085;-73
2023/01/28 00:52:22;;;;;;;330.33;86.32;;;;;;;4.27;88.03;98872.81;339571;28;4751;-73
2023/01/28 00:52:32;;;;;;;334.50;89.37;;;;;;;4.26;87.74;98873.72;340167;28;1251;-73
2023/01/28 00:52:43;;;;;;;335.25;89.15;;;;;;;4.26;88.13;98878.03;338012;29;1793;-73
2023/01/28 00:52:53;;;;;;;334.08;87.95;;;;;;;4.27;88.13;98878.00;339080;29;2924;-73
2023/01/28 00:53:04;;;;;;;329.10;85.43;;;;;;;4.28;88.07;98874.53;337257;29;1636;-73
2023/01/28 00:53:14;;;;;;;328.25;84.05;;;;;;;4.27;88.23;98875.41;331844;29;4479;-72
2023/01/28 00:53:25;;;;;;;330.63;86.70;;;;;;;4.26;88.47;98875.47;333503;29;3067;-72
2023/01/28 00:53:35;;;;;;;335.58;91.43;;;;;;;4.26;88.35;98876.31;334548;29;1026;-72
2023/01/28 00:53:46;;;;;;;337.47;91.90;;;;;;;4.28;88.48;98873.69;335474;29;2064;-74
2023/01/28 00:53:56;;;;;;;337.45;91.82;;;;;;;4.27;87.97;98867.66;334181;29;4932;-73
2023/01/28 00:54:07;;;;;;;334.17;89.00;;;;;;;4.28;88.42;98876.25;334620;29;3544;-73
2023/01/28 00:54:17;;;;;;;333.55;90.68;;;;;;;4.27;88.09;98875.41;333668;29;4573;-72